createdAt,value
2022-08-02T00:01:04.731Z,69.20
2022-08-02T00:03:33.128Z,69.33
2022-08-02T00:06:01.778Z,69.57
2022-08-02T00:08:30.022Z,69.71
2022-08-02T00:11:17.045Z,69.97
2022-08-02T00:14:04.892Z,70.31
2022-08-02T00:16:51.720Z,70.60
2022-08-02T00:19:38.837Z,70.67
2022-08-02T00:22:07.500Z,70.56
2022-08-02T00:24:35.954Z,70.47
2022-08-02T00:27:04.997Z,70.66
2022-08-02T00:29:50.474Z,70.75
2022-08-02T00:32:23.561Z,70.80
2022-08-02T00:34:52.528Z,70.68
2022-08-02T00:37:20.735Z,70.82
2022-08-02T00:39:48.956Z,70.98
2022-08-02T00:42:17.516Z,71.08
2022-08-02T00:44:45.859Z,71.19
2022-08-02T00:47:19.526Z,71.38
2022-08-02T00:49:48.429Z,71.79
2022-08-02T00:52:16.707Z,71.98
2022-08-02T00:54:44.974Z,72.11
2022-08-02T00:57:13.464Z,72.39
2022-08-02T00:59:42.283Z,72.37
2022-08-02T01:02:10.866Z,72.92
2022-08-02T01:04:40.542Z,73.10
2022-08-02T01:07:12.351Z,73.56
2022-08-02T01:09:45.824Z,73.82
2022-08-02T01:12:14.733Z,74.32
2022-08-02T01:14:48.240Z,74.24
2022-08-02T01:17:50.865Z,73.99
2022-08-02T01:20:25.318Z,74.37
2022-08-02T01:23:50.896Z,74.20
2022-08-02T01:26:29.094Z,74.29
2022-08-02T01:29:29.392Z,74.07
2022-08-02T01:32:12.338Z,74.00
2022-08-02T01:34:57.747Z,74.17
2022-08-02T01:37:41.690Z,74.13
2022-08-02T01:40:14.271Z,74.24
2022-08-02T01:42:47.595Z,74.09
2022-08-02T01:45:18.907Z,74.06
2022-08-02T01:47:49.947Z,74.03
2022-08-02T01:50:23.679Z,74.06
2022-08-02T01:52:55.242Z,74.07
2022-08-02T01:55:58.121Z,73.99
2022-08-02T01:58:27.705Z,74.04
2022-08-02T02:00:58.389Z,73.83
2022-08-02T02:03:29.432Z,74.07
2022-08-02T02:06:00.036Z,73.99
2022-08-02T02:08:33.275Z,74.08
2022-08-02T02:12:11.499Z,74.41
2022-08-02T02:13:53.505Z,74.55
2022-08-02T02:16:23.217Z,74.53
2022-08-02T02:18:53.676Z,74.67
2022-08-02T02:21:22.396Z,74.77
2022-08-02T02:23:51.128Z,74.79
2022-08-02T02:26:20.896Z,74.85
2022-08-02T02:29:04.813Z,74.90
2022-08-02T02:31:37.380Z,74.77
2022-08-02T02:34:10.678Z,74.71
2022-08-02T02:36:47.923Z,74.60
2022-08-02T02:39:20.909Z,74.55
2022-08-02T02:41:51.607Z,74.65
2022-08-02T02:44:21.781Z,74.69
2022-08-02T02:46:52.998Z,74.73
2022-08-02T02:49:23.297Z,74.74
2022-08-02T02:51:53.257Z,74.91
2022-08-02T02:54:33.787Z,74.85
2022-08-02T02:57:05.979Z,74.99
2022-08-02T02:59:42.554Z,75.01
2022-08-02T03:02:19.229Z,75.01
2022-08-02T03:04:55.856Z,74.94
2022-08-02T03:07:26.418Z,74.96
2022-08-02T03:09:55.358Z,74.91
2022-08-02T03:12:30.958Z,74.81
2022-08-02T03:15:04.441Z,74.73
2022-08-02T03:17:44.515Z,74.61
2022-08-02T03:20:18.505Z,74.60
2022-08-02T03:22:47.662Z,74.40
2022-08-02T03:25:17.530Z,74.21
2022-08-02T03:27:46.688Z,74.05
2022-08-02T03:30:15.626Z,73.94
2022-08-02T03:32:47.194Z,73.85
2022-08-02T03:35:23.346Z,73.76
2022-08-02T03:37:56.033Z,73.78
2022-08-02T03:40:25.581Z,73.78
2022-08-02T03:42:54.748Z,73.99
2022-08-02T03:45:24.659Z,73.58
2022-08-02T03:47:53.218Z,73.39
2022-08-02T03:50:25.787Z,73.21
2022-08-02T03:52:54.789Z,73.14
2022-08-02T03:55:23.443Z,73.01
2022-08-02T03:57:52.001Z,72.88
2022-08-02T04:00:23.191Z,72.67
2022-08-02T04:02:52.592Z,72.40
2022-08-02T04:05:20.906Z,72.32
2022-08-02T04:08:33.995Z,72.22
2022-08-02T04:10:56.732Z,72.22
2022-08-02T04:13:35.844Z,72.23
2022-08-02T04:16:15.042Z,72.17
2022-08-02T04:18:55.883Z,72.11
2022-08-02T04:21:49.075Z,72.09
2022-08-02T04:24:18.608Z,72.04
2022-08-02T04:26:49.089Z,71.77
2022-08-02T04:29:19.527Z,71.53
2022-08-02T04:31:48.636Z,71.21
2022-08-02T04:34:17.593Z,70.97
2022-08-02T04:36:47.172Z,70.65
2022-08-02T04:39:15.681Z,70.25
2022-08-02T04:41:46.507Z,70.20
2022-08-02T04:44:15.409Z,70.02
2022-08-02T04:46:44.809Z,69.72
2022-08-02T04:49:13.388Z,69.39
2022-08-02T04:51:43.620Z,69.09
2022-08-02T04:54:12.345Z,68.73
2022-08-02T04:56:41.476Z,68.39
2022-08-02T04:59:09.906Z,68.17
2022-08-02T05:01:42.764Z,67.86
2022-08-02T05:04:11.368Z,67.49
2022-08-02T05:06:40.005Z,67.07
2022-08-02T05:09:08.735Z,66.57
2022-08-02T05:11:37.482Z,66.15
2022-08-02T05:14:06.403Z,65.51
2022-08-02T05:16:34.615Z,65.05
2022-08-02T05:19:03.554Z,64.26
2022-08-02T05:21:32.195Z,63.85
2022-08-02T05:24:00.736Z,63.57
2022-08-02T05:26:29.312Z,63.15
2022-08-02T05:28:57.665Z,62.20
2022-08-02T05:31:25.977Z,61.52
2022-08-02T05:33:54.452Z,61.09
2022-08-02T05:36:22.933Z,60.69
2022-08-02T05:38:51.951Z,60.39
2022-08-02T05:41:21.077Z,60.80
2022-08-02T05:43:49.403Z,59.33
2022-08-02T05:46:17.671Z,58.32
2022-08-02T05:48:46.106Z,58.64
2022-08-02T05:51:32.963Z,59.52
2022-08-02T05:54:05.241Z,58.86
2022-08-02T05:56:38.936Z,59.09
2022-08-02T05:59:18.054Z,59.68
2022-08-02T06:01:49.275Z,59.71
2022-08-02T06:04:30.833Z,60.21
2022-08-02T06:07:02.934Z,59.12
2022-08-02T06:09:32.927Z,59.51
2022-08-02T06:12:03.538Z,60.49
2022-08-02T06:14:33.740Z,61.13
2022-08-02T06:17:05.839Z,60.48
2022-08-02T06:19:51.696Z,60.52
2022-08-02T06:22:35.943Z,60.15
2022-08-02T06:25:06.461Z,59.66
2022-08-02T06:27:41.427Z,59.47
2022-08-02T06:30:11.273Z,59.11
2022-08-02T06:32:39.933Z,59.00
2022-08-02T06:35:08.923Z,57.77
2022-08-02T06:37:48.375Z,56.56
2022-08-02T06:41:04.834Z,54.80
2022-08-02T06:43:45.116Z,55.70
2022-08-02T06:46:37.766Z,55.15
2022-08-02T06:49:02.593Z,53.30
2022-08-02T06:51:31.309Z,53.70
2022-08-02T06:53:59.803Z,54.03
2022-08-02T06:56:28.285Z,54.12
2022-08-02T06:58:56.768Z,54.09
2022-08-02T07:01:25.034Z,53.97
2022-08-02T07:03:53.569Z,53.17
2022-08-02T07:06:22.415Z,52.40
2022-08-02T07:09:18.036Z,50.74
2022-08-02T07:11:39.403Z,50.67
2022-08-02T07:14:07.727Z,51.27
2022-08-02T07:16:35.897Z,51.08
2022-08-02T07:19:04.581Z,51.12
2022-08-02T07:21:56.980Z,51.30
2022-08-02T07:24:21.469Z,51.87
2022-08-02T07:27:09.874Z,51.53
2022-08-02T07:29:46.518Z,50.79
2022-08-02T07:32:22.185Z,51.59
2022-08-02T07:34:53.419Z,50.62
2022-08-02T07:37:35.822Z,51.38
2022-08-02T07:40:13.854Z,51.44
2022-08-02T07:42:43.857Z,50.78
2022-08-02T07:45:13.669Z,50.73
2022-08-02T07:47:44.207Z,51.68
2022-08-02T07:50:15.116Z,50.12
2022-08-02T07:52:44.947Z,50.50
2022-08-02T07:55:15.092Z,51.10
2022-08-02T07:57:46.399Z,51.22
2022-08-02T08:00:17.669Z,51.20
2022-08-02T08:02:47.476Z,51.22
2022-08-02T08:05:16.073Z,51.81
2022-08-02T08:07:44.570Z,51.37
2022-08-02T08:10:12.977Z,51.26
2022-08-02T08:12:41.260Z,51.57
2022-08-02T08:15:10.931Z,50.82
2022-08-02T08:17:39.395Z,50.22
2022-08-02T08:20:08.855Z,49.88
2022-08-02T08:22:38.696Z,49.02
2022-08-02T08:25:07.312Z,48.31
2022-08-02T08:27:36.122Z,48.57
2022-08-02T08:30:05.201Z,47.57
2022-08-02T08:32:33.706Z,47.30
2022-08-02T08:35:03.731Z,48.09
2022-08-02T08:37:40.950Z,48.21
2022-08-02T08:40:11.478Z,48.31
2022-08-02T08:42:40.500Z,47.79
2022-08-02T08:45:09.665Z,46.59
2022-08-02T08:47:42.713Z,45.83
2022-08-02T08:50:21.532Z,46.19
2022-08-02T08:53:05.053Z,46.04
2022-08-02T08:55:37.230Z,45.15
2022-08-02T08:58:05.740Z,44.95
2022-08-02T09:00:36.091Z,44.47
2022-08-02T09:03:06.581Z,42.11
2022-08-02T09:05:36.966Z,42.34
2022-08-02T09:08:06.676Z,43.51
2022-08-02T09:10:40.100Z,43.05
2022-08-02T09:13:38.995Z,40.13
2022-08-02T09:16:12.597Z,40.94
2022-08-02T09:18:45.022Z,39.38
2022-08-02T09:21:15.511Z,42.55
2022-08-02T09:23:48.141Z,41.78
2022-08-02T09:26:22.196Z,42.36
2022-08-02T09:28:52.792Z,41.89
2022-08-02T09:31:23.146Z,42.33
2022-08-02T09:33:57.459Z,40.90
2022-08-02T09:36:27.425Z,40.89
2022-08-02T09:39:01.861Z,40.79
2022-08-02T09:41:34.143Z,39.64
2022-08-02T09:44:06.969Z,39.84
2022-08-02T09:46:38.813Z,38.77
2022-08-02T09:49:19.132Z,38.25
2022-08-02T09:51:47.819Z,37.87
2022-08-02T09:54:19.459Z,38.27
2022-08-02T09:56:50.659Z,38.25
2022-08-02T09:59:21.739Z,37.33
2022-08-02T10:01:58.964Z,38.46
2022-08-02T10:04:34.409Z,38.01
2022-08-02T10:07:22.517Z,38.00
2022-08-02T10:09:52.429Z,38.04
2022-08-02T10:12:23.189Z,38.28
2022-08-02T10:14:52.230Z,38.73
2022-08-02T10:17:22.067Z,39.10
2022-08-02T10:20:03.180Z,39.02
2022-08-02T10:22:34.534Z,37.67
2022-08-02T10:25:07.103Z,37.97
2022-08-02T10:28:02.486Z,37.82
2022-08-02T10:30:27.491Z,37.79
2022-08-02T10:32:58.031Z,36.94
2022-08-02T10:35:27.176Z,36.49
2022-08-02T10:38:04.393Z,36.53
2022-08-02T10:40:55.481Z,35.51
2022-08-02T10:43:33.201Z,35.19
2022-08-02T10:46:21.136Z,34.50
2022-08-02T10:49:37.503Z,33.96
2022-08-02T10:52:07.886Z,33.55
2022-08-02T10:54:39.618Z,34.14
2022-08-02T10:57:24.641Z,34.18
2022-08-02T11:00:01.364Z,34.19
2022-08-02T11:02:38.708Z,34.29
2022-08-02T11:05:16.314Z,34.39
2022-08-02T11:07:50.385Z,35.93
2022-08-02T11:10:34.111Z,37.35
2022-08-02T11:13:08.439Z,37.32
2022-08-02T11:15:54.052Z,37.34
2022-08-02T11:18:24.527Z,37.32
2022-08-02T11:21:28.627Z,37.14
2022-08-02T11:24:17.198Z,36.81
2022-08-02T11:26:45.832Z,36.59
2022-08-02T11:29:15.590Z,36.25
2022-08-02T11:31:47.620Z,35.85
2022-08-02T11:34:36.449Z,35.60
2022-08-02T11:37:05.965Z,35.48
2022-08-02T11:39:34.601Z,35.44
2022-08-02T11:42:03.494Z,35.46
2022-08-02T11:44:41.653Z,35.57
2022-08-02T11:47:10.390Z,35.66
2022-08-02T11:49:38.991Z,35.88
2022-08-02T11:52:11.534Z,35.97
2022-08-02T11:54:42.686Z,35.81
2022-08-02T11:57:21.620Z,35.57
2022-08-02T11:59:53.205Z,35.36
2022-08-02T12:02:30.158Z,34.58
2022-08-02T12:05:02.136Z,34.41
2022-08-02T12:07:36.931Z,34.23
2022-08-02T12:10:18.754Z,34.51
2022-08-02T12:13:05.745Z,34.73
2022-08-02T12:15:41.816Z,34.84
2022-08-02T12:18:31.384Z,34.59
2022-08-02T12:21:00.507Z,33.89
2022-08-02T12:23:29.791Z,33.88
2022-08-02T12:26:03.752Z,33.31
2022-08-02T12:28:40.756Z,32.92
2022-08-02T12:31:11.531Z,32.30
2022-08-02T12:33:54.098Z,32.39
2022-08-02T12:36:28.071Z,32.12
2022-08-02T12:38:59.294Z,31.98
2022-08-02T12:41:31.764Z,31.85
2022-08-02T12:44:01.180Z,32.17
2022-08-02T12:46:31.782Z,32.54
2022-08-02T12:49:18.339Z,32.89
2022-08-02T12:51:58.999Z,32.99
2022-08-02T12:54:32.834Z,33.05
2022-08-02T12:57:12.936Z,33.34
2022-08-02T12:59:45.275Z,32.99
2022-08-02T13:02:14.982Z,32.73
2022-08-02T13:04:49.933Z,32.95
2022-08-02T13:07:20.045Z,32.99
2022-08-02T13:09:50.264Z,33.37
2022-08-02T13:12:18.609Z,33.89
2022-08-02T13:14:47.332Z,34.23
2022-08-02T13:17:15.905Z,34.19
2022-08-02T13:19:44.108Z,33.86
2022-08-02T13:22:13.363Z,33.40
2022-08-02T13:24:55.883Z,33.02
2022-08-02T13:27:26.840Z,32.46
2022-08-02T13:29:57.356Z,31.96
2022-08-02T13:32:28.185Z,31.61
2022-08-02T13:34:58.244Z,31.51
2022-08-02T13:37:26.520Z,30.83
2022-08-02T13:40:20.170Z,30.76
2022-08-02T13:42:43.905Z,30.20
2022-08-02T13:45:14.433Z,30.02
2022-08-02T13:48:03.469Z,29.97
2022-08-02T13:50:34.162Z,29.63
2022-08-02T13:53:02.374Z,29.24
2022-08-02T13:55:31.145Z,28.74
2022-08-02T13:58:00.316Z,28.54
2022-08-02T14:00:35.410Z,28.30
2022-08-02T14:03:11.948Z,27.85
2022-08-02T14:05:48.535Z,28.28
2022-08-02T14:08:19.395Z,28.53
2022-08-02T14:10:51.612Z,28.52
2022-08-02T14:13:20.460Z,28.97
2022-08-02T14:15:49.202Z,28.97
2022-08-02T14:18:17.990Z,28.71
2022-08-02T14:20:47.189Z,28.80
2022-08-02T14:23:15.539Z,28.64
2022-08-02T14:25:43.824Z,28.93
2022-08-02T14:28:12.707Z,28.68
2022-08-02T14:30:40.907Z,28.71
2022-08-02T14:33:09.180Z,28.86
2022-08-02T14:35:38.356Z,29.01
2022-08-02T14:38:07.268Z,29.14
2022-08-02T14:40:36.234Z,29.34
2022-08-02T14:43:05.334Z,29.64
2022-08-02T14:45:36.725Z,29.86
2022-08-02T14:48:12.250Z,29.77
2022-08-02T14:50:40.746Z,29.95
2022-08-02T14:53:12.098Z,30.03
2022-08-02T14:55:43.175Z,30.03
2022-08-02T14:58:12.309Z,29.85
2022-08-02T15:00:41.583Z,29.61
2022-08-02T15:03:12.021Z,29.68
2022-08-02T15:05:40.605Z,29.70
2022-08-02T15:08:08.986Z,29.83
2022-08-02T15:10:38.182Z,30.14
2022-08-02T15:13:07.429Z,30.45
2022-08-02T15:15:43.050Z,30.91
2022-08-02T15:18:14.531Z,30.77
2022-08-02T15:20:45.375Z,30.73
2022-08-02T15:23:37.101Z,30.74
2022-08-02T15:26:06.261Z,31.30
2022-08-02T15:28:35.333Z,31.61
2022-08-02T15:31:03.607Z,31.60
2022-08-02T15:33:32.089Z,31.59
2022-08-02T15:36:01.129Z,31.57
2022-08-02T15:38:29.619Z,31.36
2022-08-02T15:40:58.114Z,31.42
2022-08-02T15:43:26.580Z,31.56
2022-08-02T15:45:55.111Z,32.03
2022-08-02T15:48:23.411Z,32.37
2022-08-02T15:50:52.382Z,32.77
2022-08-02T15:53:20.735Z,33.12
2022-08-02T15:56:04.223Z,33.20
2022-08-02T15:58:44.213Z,33.47
2022-08-02T16:01:13.535Z,33.81
2022-08-02T16:03:42.250Z,34.15
2022-08-02T16:06:10.534Z,34.50
2022-08-02T16:08:39.027Z,34.83
2022-08-02T16:11:23.086Z,34.93
2022-08-02T16:13:54.148Z,35.06
2022-08-02T16:16:25.250Z,35.12
2022-08-02T16:18:54.243Z,35.19
2022-08-02T16:21:23.811Z,35.31
2022-08-02T16:23:59.200Z,35.42
2022-08-02T16:26:32.070Z,35.45
2022-08-02T16:29:01.921Z,35.52
2022-08-02T16:31:30.768Z,35.73
2022-08-02T16:33:59.220Z,36.06
2022-08-02T16:36:28.623Z,36.33
2022-08-02T16:38:57.116Z,36.60
2022-08-02T16:41:45.568Z,36.61
2022-08-02T16:44:15.569Z,36.53
2022-08-02T16:46:45.588Z,36.45
2022-08-02T16:50:05.874Z,36.40
2022-08-02T16:52:03.600Z,36.40
2022-08-02T16:54:31.919Z,36.45
2022-08-02T16:57:00.605Z,36.45
2022-08-02T16:59:34.027Z,36.51
2022-08-02T17:02:17.908Z,36.60
2022-08-02T17:04:47.586Z,36.66
2022-08-02T17:08:07.385Z,36.92
2022-08-02T17:10:09.515Z,36.99
2022-08-02T17:12:39.254Z,37.19
2022-08-02T17:16:17.259Z,37.37
2022-08-02T17:17:57.823Z,37.65
2022-08-02T17:20:26.464Z,37.91
2022-08-02T17:22:54.841Z,38.27
2022-08-02T17:25:24.769Z,38.47
2022-08-02T17:27:55.874Z,38.76
2022-08-02T17:30:26.627Z,39.10
2022-08-02T17:32:59.238Z,39.69
2022-08-02T17:35:39.958Z,40.13
2022-08-02T17:38:26.103Z,40.58
2022-08-02T17:40:55.883Z,41.11
2022-08-02T17:43:29.006Z,41.69
2022-08-02T17:46:01.004Z,42.40
2022-08-02T17:48:55.069Z,43.10
2022-08-02T17:52:49.188Z,43.82
2022-08-02T17:54:28.740Z,44.64
2022-08-02T17:56:58.891Z,45.29
2022-08-02T17:59:30.871Z,45.93
2022-08-02T18:02:11.520Z,46.57
2022-08-02T18:04:40.078Z,47.13
2022-08-02T18:07:10.285Z,47.68
2022-08-02T18:09:43.511Z,48.13
2022-08-02T18:12:15.041Z,48.52
2022-08-02T18:14:49.066Z,49.17
2022-08-02T18:17:17.835Z,49.78
2022-08-02T18:19:57.497Z,50.08
2022-08-02T18:22:28.020Z,50.65
2022-08-02T18:24:56.531Z,51.10
2022-08-02T18:27:24.970Z,51.62
2022-08-02T18:30:04.043Z,52.01
2022-08-02T18:33:53.938Z,52.36
2022-08-02T18:35:23.616Z,52.62
2022-08-02T18:37:57.173Z,53.17
2022-08-02T18:40:30.076Z,53.56
2022-08-02T18:42:58.970Z,54.17
2022-08-02T18:45:42.075Z,54.27
2022-08-02T18:48:20.556Z,54.55
2022-08-02T18:50:50.548Z,55.15
2022-08-02T18:53:39.296Z,55.51
2022-08-02T18:56:08.083Z,55.79
2022-08-02T18:58:36.490Z,56.41
2022-08-02T19:01:14.842Z,56.61
2022-08-02T19:03:50.919Z,56.85
2022-08-02T19:06:20.212Z,57.40
2022-08-02T19:09:05.350Z,57.56
2022-08-02T19:11:40.935Z,57.83
2022-08-02T19:14:10.455Z,58.33
2022-08-02T19:16:38.944Z,58.69
2022-08-02T19:19:07.360Z,59.15
2022-08-02T19:22:17.276Z,59.48
2022-08-02T19:24:25.029Z,59.79
2022-08-02T19:26:55.067Z,60.09
2022-08-02T19:29:25.183Z,60.40
2022-08-02T19:32:42.422Z,60.73
2022-08-02T19:35:04.035Z,61.01
2022-08-02T19:37:53.194Z,61.27
2022-08-02T19:40:24.661Z,61.77
2022-08-02T19:45:49.035Z,63.64
2022-08-02T19:48:23.874Z,63.29
2022-08-02T19:50:59.244Z,62.94
2022-08-02T19:56:25.180Z,62.50
2022-08-02T19:58:57.796Z,62.12
2022-08-02T20:01:36.964Z,61.84
2022-08-02T20:04:12.929Z,61.80
2022-08-02T20:06:46.105Z,61.58
2022-08-02T20:09:21.236Z,61.50
2022-08-02T20:11:54.376Z,61.62
2022-08-02T20:14:27.369Z,61.56
2022-08-02T20:16:57.395Z,61.48
2022-08-02T20:19:29.567Z,61.46
2022-08-02T20:22:09.409Z,61.44
2022-08-02T20:24:38.284Z,61.53
2022-08-02T20:27:07.894Z,61.47
2022-08-02T20:29:43.030Z,61.52
2022-08-02T20:32:17.474Z,61.58
2022-08-02T20:34:48.659Z,61.60
2022-08-02T20:37:59.455Z,61.71
2022-08-02T20:40:07.271Z,61.87
2022-08-02T20:42:36.126Z,61.71
2022-08-02T20:45:05.921Z,61.78
2022-08-02T20:47:40.006Z,61.85
2022-08-02T20:53:18.396Z,62.25
2022-08-02T20:55:54.661Z,62.19
2022-08-02T20:58:27.358Z,62.21
2022-08-02T21:00:59.920Z,62.28
2022-08-02T21:03:38.899Z,62.32
2022-08-02T21:06:10.185Z,62.45
2022-08-02T21:08:39.477Z,62.42
2022-08-02T21:11:09.182Z,62.44
2022-08-02T21:13:47.349Z,62.45
2022-08-02T21:16:26.607Z,62.54
2022-08-02T21:19:00.174Z,62.46
2022-08-02T21:21:29.822Z,62.51
2022-08-02T21:24:00.261Z,62.55
2022-08-02T21:26:30.995Z,62.66
2022-08-02T21:29:03.491Z,62.64
2022-08-02T21:31:35.775Z,62.67
2022-08-02T21:34:07.571Z,62.69
2022-08-02T21:36:51.038Z,62.77
2022-08-02T21:39:20.658Z,62.78
2022-08-02T21:41:49.464Z,62.82
2022-08-02T21:44:20.381Z,62.87
2022-08-02T21:46:51.748Z,63.02
2022-08-02T21:49:27.418Z,63.16
2022-08-02T21:52:11.246Z,63.40
2022-08-02T21:54:40.833Z,63.31
2022-08-02T21:57:16.585Z,63.40
2022-08-02T21:59:46.690Z,63.48
2022-08-02T22:02:18.411Z,63.55
2022-08-02T22:04:47.775Z,63.58
2022-08-02T22:07:24.351Z,63.63
2022-08-02T22:09:53.558Z,63.79
2022-08-02T22:12:26.421Z,63.93
2022-08-02T22:14:56.501Z,63.97
2022-08-02T22:17:51.424Z,64.13
2022-08-02T22:20:18.238Z,64.34
2022-08-02T22:22:50.083Z,64.36
2022-08-02T22:25:27.230Z,64.45
2022-08-02T22:28:36.023Z,64.57
2022-08-02T22:30:56.795Z,64.68
2022-08-02T22:33:47.265Z,64.58
2022-08-02T22:36:30.516Z,64.76
2022-08-02T22:39:00.444Z,64.72
2022-08-02T22:42:01.568Z,64.77
2022-08-02T22:44:18.785Z,64.79
2022-08-02T22:46:49.995Z,64.74
2022-08-02T22:49:36.979Z,64.71
2022-08-02T22:52:07.858Z,64.87
2022-08-02T22:54:36.707Z,64.76
2022-08-02T22:57:06.650Z,64.74
2022-08-02T22:58:53.720Z,62.65
2022-08-02T22:59:05.254Z,62.63
2022-08-02T22:59:05.255Z,62.04
2022-08-02T22:59:36.047Z,64.74
2022-08-02T23:02:10.406Z,65.11
2022-08-02T23:04:38.853Z,64.79
2022-08-02T23:07:07.154Z,64.79
2022-08-02T23:09:36.107Z,64.73
2022-08-02T23:12:05.114Z,64.82
2022-08-02T23:14:33.397Z,64.93
2022-08-02T23:17:20.903Z,65.00
2022-08-02T23:19:51.853Z,65.17
2022-08-02T23:22:29.959Z,65.18
2022-08-02T23:25:01.508Z,65.32
2022-08-02T23:27:31.765Z,65.27
2022-08-02T23:30:01.050Z,65.34
2022-08-02T23:32:29.376Z,65.29
2022-08-02T23:34:58.973Z,65.35
2022-08-02T23:37:27.379Z,65.35
2022-08-02T23:39:55.691Z,65.48
2022-08-02T23:42:25.664Z,65.40
2022-08-02T23:44:54.387Z,65.22
2022-08-02T23:47:22.622Z,65.14
2022-08-02T23:49:51.553Z,65.02
2022-08-02T23:52:20.248Z,64.79
2022-08-02T23:54:48.466Z,64.72
2022-08-02T23:57:20.087Z,64.63
2022-08-02T23:59:52.734Z,64.60
